Ocean Spirit of Moray — MVXF5 — position and weather

sailwx.info

Track history (hours):
 
Tides and Currents Weather Stations Pressure Air Temp Water Temp Dewpoint Dewpoint Depression Visibility Wind Speed Wind Dir Waves Ship Positions

Ocean Spirit of Moray (United Kingdom)

Ship's website: http://www.gordonstoun.org.uk/

Last reported at 2016-Jun-22 14:34 UTC. Time now 2016-Jun-29 09:17 UTC.
Position N 59°10' W 002°52'.

Length 24 m; draft 3 m.

Type: Sailing vessel. MMSI: 232007590.

Date/timePositionNaut miles runAvg speedWind from/ knotsBaromVisibWave heightAir tempDewpointWater temp
2016-Jun-22 14:34N 59°10' W 002°52'5 0.2
2016-Jun-21 10:34N 59°05' W 002°46'8 7.8
2016-Jun-21 09:34N 59°11' W 002°56'17 8.7
2016-Jun-21 07:32N 59°09' W 003°30'9 9.1
2016-Jun-21 06:33N 59°05' W 003°45'118 6.2
2016-Jun-20 11:30N 57°29' W 005°54'8 8.3
2016-Jun-20 10:33N 57°21' W 005°50'5 5.4
2016-Jun-20 09:33N 57°21' W 005°39'1 0.8
2016-Jun-20 08:33N 57°21' W 005°38'0 0.0
2016-Jun-20 07:27N 57°21' W 005°38'0 0.0
2016-Jun-20 06:33N 57°21' W 005°38'0 0.0
2016-Jun-20 05:33N 57°21' W 005°38'0 0.0
2016-Jun-20 04:33N 57°21' W 005°38'0 0.0
2016-Jun-20 03:30N 57°21' W 005°38'0 0.0
2016-Jun-20 02:33N 57°21' W 005°38'0 0.0
2016-Jun-20 01:33N 57°21' W 005°38'0 0.0
2016-Jun-20 00:33N 57°21' W 005°38'0 0.0
2016-Jun-19 23:18N 57°21' W 005°38'0 0.0
2016-Jun-19 22:30N 57°21' W 005°38'0 0.0
2016-Jun-19 21:27N 57°21' W 005°38'0 0.0
2016-Jun-19 19:30N 57°21' W 005°38'0 0.0
2016-Jun-19 18:24N 57°21' W 005°38'0 0.0
2016-Jun-19 17:30N 57°21' W 005°38'0 0.0
2016-Jun-19 16:18N 57°21' W 005°38'0 0.0
2016-Jun-19 15:33N 57°21' W 005°38'0 0.0
2016-Jun-19 14:33N 57°21' W 005°38'0 0.0
2016-Jun-19 13:30N 57°21' W 005°38'0 0.0
2016-Jun-19 12:33N 57°21' W 005°38'0 0.0
2016-Jun-19 11:33N 57°21' W 005°38'0 0.0
2016-Jun-19 10:24N 57°21' W 005°38'0 0.0
2016-Jun-19 09:33N 57°21' W 005°38'0 0.0
2016-Jun-19 08:15N 57°21' W 005°38'0 0.0
2016-Jun-19 07:24N 57°21' W 005°38'0 0.0
2016-Jun-19 06:30N 57°21' W 005°38'0 0.0
2016-Jun-19 05:32N 57°21' W 005°38'0 0.0
2016-Jun-19 04:32N 57°21' W 005°38'0 0.0
2016-Jun-19 03:32N 57°21' W 005°38'0 0.0
2016-Jun-19 02:32N 57°21' W 005°38'0 0.0
2016-Jun-19 01:26N 57°21' W 005°38'0 0.0
2016-Jun-19 00:32N 57°21' W 005°38'0 0.0
2016-Jun-18 23:32N 57°21' W 005°38'0 0.0
2016-Jun-18 22:32N 57°21' W 005°38'0 0.0
2016-Jun-18 21:32N 57°21' W 005°38'0 0.0
2016-Jun-18 20:26N 57°21' W 005°38'0 0.0
2016-Jun-18 19:32N 57°21' W 005°38'0 0.0
2016-Jun-18 18:32N 57°21' W 005°38'0 0.0
2016-Jun-18 17:26N 57°21' W 005°38'0 0.0
2016-Jun-18 16:32N 57°21' W 005°38'0 0.0
2016-Jun-18 15:32N 57°21' W 005°38'1 0.7
2016-Jun-18 14:33N 57°21' W 005°39'5 4.6
2016-Jun-18 13:33N 57°19' W 005°47'3 2.8
2016-Jun-18 12:33N 57°17' W 005°45'  
2016-Jun-14 10:33N 57°23' W 005°51'5 5.3
2016-Jun-14 09:33N 57°21' W 005°42'2 0.4
2016-Jun-14 04:33N 57°21' W 005°38'0 0.0
2016-Jun-13 19:27N 57°21' W 005°38'0 0.0
2016-Jun-13 18:33N 57°21' W 005°38'0 0.0
2016-Jun-13 17:27N 57°21' W 005°38'0 0.0
2016-Jun-13 16:32N 57°21' W 005°38'0 0.0
2016-Jun-13 15:29N 57°21' W 005°38'0 0.0
2016-Jun-13 14:26N 57°21' W 005°38'0 0.0
2016-Jun-13 13:32N 57°21' W 005°38'0 0.0
2016-Jun-13 12:33N 57°21' W 005°38'0 0.0
2016-Jun-13 11:26N 57°21' W 005°38'0 0.0
2016-Jun-13 10:32N 57°21' W 005°38'0 0.0
2016-Jun-13 09:29N 57°21' W 005°38'0 0.0
2016-Jun-13 08:32N 57°21' W 005°38'0 0.0
2016-Jun-13 07:29N 57°21' W 005°38'0 0.0
2016-Jun-13 06:29N 57°21' W 005°38'0 0.0
2016-Jun-13 05:26N 57°21' W 005°38'0 0.0
2016-Jun-13 04:32N 57°21' W 005°38'0 0.0
2016-Jun-13 03:18N 57°21' W 005°38'0 0.0
2016-Jun-13 02:32N 57°21' W 005°38'0 0.0
2016-Jun-13 01:32N 57°21' W 005°38'0 0.0
2016-Jun-13 00:29N 57°21' W 005°38'0 0.0
2016-Jun-12 23:32N 57°21' W 005°38'0 0.0
2016-Jun-12 22:32N 57°21' W 005°38'0 0.0
2016-Jun-12 17:26N 57°21' W 005°38'0 0.0
2016-Jun-12 16:32N 57°21' W 005°38'0 0.0
2016-Jun-12 15:29N 57°21' W 005°38'  
Track history (hours):
 
Tides and Currents Weather Stations Pressure Air Temp Water Temp Dewpoint Dewpoint Depression Visibility Wind Speed Wind Dir Waves Ship Positions

Ocean Spirit of Moray (United Kingdom)

Ship's website: http://www.gordonstoun.org.uk/

Last reported at 2016-Jun-22 14:34 UTC. Time now 2016-Jun-29 09:17 UTC.
Position N 59°10' W 002°52'.

Length 24 m; draft 3 m.

Type: Sailing vessel. MMSI: 232007590.

Date/timePositionNaut miles runAvg speedWind from/ knotsBaromVisibWave heightAir tempDewpointWater temp
2016-Jun-22 14:34N 59°10' W 002°52'5 0.2
2016-Jun-21 10:34N 59°05' W 002°46'8 7.8
2016-Jun-21 09:34N 59°11' W 002°56'17 8.7
2016-Jun-21 07:32N 59°09' W 003°30'9 9.1
2016-Jun-21 06:33N 59°05' W 003°45'118 6.2
2016-Jun-20 11:30N 57°29' W 005°54'8 8.3
2016-Jun-20 10:33N 57°21' W 005°50'5 5.4
2016-Jun-20 09:33N 57°21' W 005°39'1 0.8
2016-Jun-20 08:33N 57°21' W 005°38'0 0.0
2016-Jun-20 07:27N 57°21' W 005°38'0 0.0
2016-Jun-20 06:33N 57°21' W 005°38'0 0.0
2016-Jun-20 05:33N 57°21' W 005°38'0 0.0
2016-Jun-20 04:33N 57°21' W 005°38'0 0.0
2016-Jun-20 03:30N 57°21' W 005°38'0 0.0
2016-Jun-20 02:33N 57°21' W 005°38'0 0.0
2016-Jun-20 01:33N 57°21' W 005°38'0 0.0
2016-Jun-20 00:33N 57°21' W 005°38'0 0.0
2016-Jun-19 23:18N 57°21' W 005°38'0 0.0
2016-Jun-19 22:30N 57°21' W 005°38'0 0.0
2016-Jun-19 21:27N 57°21' W 005°38'0 0.0
2016-Jun-19 19:30N 57°21' W 005°38'0 0.0
2016-Jun-19 18:24N 57°21' W 005°38'0 0.0
2016-Jun-19 17:30N 57°21' W 005°38'0 0.0
2016-Jun-19 16:18N 57°21' W 005°38'0 0.0
2016-Jun-19 15:33N 57°21' W 005°38'0 0.0
2016-Jun-19 14:33N 57°21' W 005°38'0 0.0
2016-Jun-19 13:30N 57°21' W 005°38'0 0.0
2016-Jun-19 12:33N 57°21' W 005°38'0 0.0
2016-Jun-19 11:33N 57°21' W 005°38'0 0.0
2016-Jun-19 10:24N 57°21' W 005°38'0 0.0
2016-Jun-19 09:33N 57°21' W 005°38'0 0.0
2016-Jun-19 08:15N 57°21' W 005°38'0 0.0
2016-Jun-19 07:24N 57°21' W 005°38'0 0.0
2016-Jun-19 06:30N 57°21' W 005°38'0 0.0
2016-Jun-19 05:32N 57°21' W 005°38'0 0.0
2016-Jun-19 04:32N 57°21' W 005°38'0 0.0
2016-Jun-19 03:32N 57°21' W 005°38'0 0.0
2016-Jun-19 02:32N 57°21' W 005°38'0 0.0
2016-Jun-19 01:26N 57°21' W 005°38'0 0.0
2016-Jun-19 00:32N 57°21' W 005°38'0 0.0
2016-Jun-18 23:32N 57°21' W 005°38'0 0.0
2016-Jun-18 22:32N 57°21' W 005°38'0 0.0
2016-Jun-18 21:32N 57°21' W 005°38'0 0.0
2016-Jun-18 20:26N 57°21' W 005°38'0 0.0
2016-Jun-18 19:32N 57°21' W 005°38'0 0.0
2016-Jun-18 18:32N 57°21' W 005°38'0 0.0
2016-Jun-18 17:26N 57°21' W 005°38'0 0.0
2016-Jun-18 16:32N 57°21' W 005°38'0 0.0
2016-Jun-18 15:32N 57°21' W 005°38'1 0.7
2016-Jun-18 14:33N 57°21' W 005°39'5 4.6
2016-Jun-18 13:33N 57°19' W 005°47'3 2.8
2016-Jun-18 12:33N 57°17' W 005°45'  
2016-Jun-14 10:33N 57°23' W 005°51'5 5.3
2016-Jun-14 09:33N 57°21' W 005°42'2 0.4
2016-Jun-14 04:33N 57°21' W 005°38'0 0.0
2016-Jun-13 19:27N 57°21' W 005°38'0 0.0
2016-Jun-13 18:33N 57°21' W 005°38'0 0.0
2016-Jun-13 17:27N 57°21' W 005°38'0 0.0
2016-Jun-13 16:32N 57°21' W 005°38'0 0.0
2016-Jun-13 15:29N 57°21' W 005°38'0 0.0
2016-Jun-13 14:26N 57°21' W 005°38'0 0.0
2016-Jun-13 13:32N 57°21' W 005°38'0 0.0
2016-Jun-13 12:33N 57°21' W 005°38'0 0.0
2016-Jun-13 11:26N 57°21' W 005°38'0 0.0
2016-Jun-13 10:32N 57°21' W 005°38'0 0.0
2016-Jun-13 09:29N 57°21' W 005°38'0 0.0
2016-Jun-13 08:32N 57°21' W 005°38'0 0.0
2016-Jun-13 07:29N 57°21' W 005°38'0 0.0
2016-Jun-13 06:29N 57°21' W 005°38'0 0.0
2016-Jun-13 05:26N 57°21' W 005°38'0 0.0
2016-Jun-13 04:32N 57°21' W 005°38'0 0.0
2016-Jun-13 03:18N 57°21' W 005°38'0 0.0
2016-Jun-13 02:32N 57°21' W 005°38'0 0.0
2016-Jun-13 01:32N 57°21' W 005°38'0 0.0
2016-Jun-13 00:29N 57°21' W 005°38'0 0.0
2016-Jun-12 23:32N 57°21' W 005°38'0 0.0
2016-Jun-12 22:32N 57°21' W 005°38'0 0.0
2016-Jun-12 17:26N 57°21' W 005°38'0 0.0
2016-Jun-12 16:32N 57°21' W 005°38'0 0.0
2016-Jun-12 15:29N 57°21' W 005°38'  

Dump ship's entire track history